createdAt,value
2019-06-10T00:00:41.872Z,5.13
2019-06-10T00:03:11.520Z,5.33
2019-06-10T00:05:41.369Z,5.27
2019-06-10T00:08:11.834Z,7.67
2019-06-10T00:10:42.287Z,5.13
2019-06-10T00:13:11.742Z,5.90
2019-06-10T00:15:40.989Z,5.20
2019-06-10T00:18:33.330Z,4.13
2019-06-10T00:20:40.909Z,4.60
2019-06-10T00:23:12.215Z,4.23
2019-06-10T00:25:41.571Z,4.63
2019-06-10T00:28:11.652Z,4.20
2019-06-10T00:30:41.109Z,3.63
2019-06-10T00:33:12.060Z,3.97
2019-06-10T00:35:41.195Z,3.83
2019-06-10T00:38:13.134Z,3.77
2019-06-10T00:40:41.471Z,5.53
2019-06-10T00:43:11.604Z,5.37
2019-06-10T00:45:41.001Z,5.00
2019-06-10T00:48:21.120Z,5.37
2019-06-10T00:50:41.145Z,4.23
2019-06-10T00:53:09.885Z,6.77
2019-06-10T00:55:41.148Z,9.23
2019-06-10T00:58:12.027Z,6.47
2019-06-10T01:00:41.189Z,4.80
2019-06-10T01:03:11.625Z,5.27
2019-06-10T01:05:38.661Z,4.80
2019-06-10T01:08:06.958Z,4.97
2019-06-10T01:10:35.257Z,8.30
2019-06-10T01:13:03.554Z,4.10
2019-06-10T01:15:31.841Z,9.33
2019-06-10T01:18:01.357Z,5.13
2019-06-10T01:20:29.737Z,8.60
2019-06-10T01:22:58.032Z,5.40
2019-06-10T01:25:26.320Z,5.23
2019-06-10T01:27:54.618Z,4.97
2019-06-10T01:30:26.984Z,5.10
2019-06-10T01:32:52.889Z,4.33
2019-06-10T01:35:21.241Z,6.87
2019-06-10T01:37:51.884Z,5.47
2019-06-10T01:40:20.866Z,7.60
2019-06-10T01:42:50.618Z,5.03
2019-06-10T01:45:21.099Z,7.23
2019-06-10T01:47:51.036Z,5.40
2019-06-10T01:50:21.361Z,4.73
2019-06-10T01:52:48.899Z,8.07
2019-06-10T01:55:18.285Z,4.77
2019-06-10T01:57:46.618Z,5.60
2019-06-10T02:00:19.698Z,4.53
2019-06-10T02:02:45.321Z,5.67
2019-06-10T02:05:15.972Z,5.93
2019-06-10T02:07:43.577Z,6.57
2019-06-10T02:10:15.258Z,7.87
2019-06-10T02:12:41.919Z,6.37
2019-06-10T02:15:12.579Z,5.50
2019-06-10T02:17:41.701Z,6.27
2019-06-10T02:20:12.901Z,5.83
2019-06-10T02:22:41.135Z,8.63
2019-06-10T02:25:11.006Z,5.50
2019-06-10T02:27:41.559Z,6.90
2019-06-10T02:30:20.592Z,6.07
2019-06-10T02:32:42.576Z,6.70
2019-06-10T02:35:16.919Z,5.87
2019-06-10T02:37:39.589Z,8.00
2019-06-10T02:40:07.893Z,6.10
2019-06-10T02:42:39.661Z,6.23
2019-06-10T02:45:09.914Z,5.73
2019-06-10T02:47:38.501Z,6.53
2019-06-10T02:50:09.067Z,5.20
2019-06-10T02:52:38.694Z,4.70
2019-06-10T02:55:07.456Z,4.53
2019-06-10T02:57:39.979Z,5.70
2019-06-10T03:00:19.947Z,5.20
2019-06-10T03:02:37.603Z,5.63
2019-06-10T03:05:06.466Z,6.90
2019-06-10T03:07:35.609Z,6.83
2019-06-10T03:10:04.895Z,7.00
2019-06-10T03:12:33.370Z,5.90
2019-06-10T03:15:02.235Z,7.67
2019-06-10T03:17:32.280Z,7.57
2019-06-10T03:20:02.365Z,6.47
2019-06-10T03:22:32.724Z,7.63
2019-06-10T03:25:02.787Z,9.67
2019-06-10T03:27:32.672Z,7.87
2019-06-10T03:30:03.094Z,6.73
2019-06-10T03:32:40.073Z,6.90
2019-06-10T03:35:00.442Z,7.07
2019-06-10T03:37:28.725Z,6.43
2019-06-10T03:39:57.008Z,10.73
2019-06-10T03:42:26.501Z,8.33
2019-06-10T03:44:55.323Z,8.67
2019-06-10T03:47:24.288Z,8.13
2019-06-10T03:49:56.206Z,6.73
2019-06-10T03:52:25.600Z,6.23
2019-06-10T03:54:54.042Z,7.27
2019-06-10T03:57:24.204Z,6.37
2019-06-10T03:59:52.797Z,8.77
2019-06-10T04:02:23.443Z,7.80
2019-06-10T04:04:52.323Z,9.33
2019-06-10T04:07:24.111Z,8.93
2019-06-10T04:09:52.607Z,10.70
2019-06-10T04:12:22.166Z,7.60
2019-06-10T04:14:52.137Z,9.87
2019-06-10T04:17:22.681Z,11.93
2019-06-10T04:20:07.530Z,7.07
2019-06-10T04:22:22.654Z,6.90
2019-06-10T04:24:52.072Z,10.03
2019-06-10T04:27:22.316Z,8.03
2019-06-10T04:29:52.284Z,8.07
2019-06-10T04:32:20.782Z,7.33
2019-06-10T04:34:52.863Z,8.40
2019-06-10T04:37:20.364Z,10.57
2019-06-10T04:39:48.698Z,7.47
2019-06-10T04:42:18.278Z,8.43
2019-06-10T04:44:46.692Z,8.37
2019-06-10T04:47:15.004Z,10.50
2019-06-10T04:49:43.285Z,8.60
2019-06-10T04:52:12.265Z,7.00
2019-06-10T04:54:42.125Z,7.43
2019-06-10T04:57:12.669Z,8.27
2019-06-10T04:59:42.718Z,8.33
2019-06-10T05:02:12.676Z,9.70
2019-06-10T05:04:42.497Z,7.57
2019-06-10T05:07:12.461Z,6.77
2019-06-10T05:09:42.109Z,7.33
2019-06-10T05:12:12.123Z,7.17
2019-06-10T05:14:43.099Z,8.33
2019-06-10T05:17:12.718Z,6.93
2019-06-10T05:19:42.831Z,7.53
2019-06-10T05:22:12.411Z,8.97
2019-06-10T05:24:42.419Z,10.37
2019-06-10T05:27:12.508Z,7.33
2019-06-10T05:29:42.189Z,5.87
2019-06-10T05:32:12.639Z,11.27
2019-06-10T05:34:43.517Z,8.37
2019-06-10T05:37:12.113Z,7.83
2019-06-10T05:39:42.420Z,8.03
2019-06-10T05:42:12.733Z,9.13
2019-06-10T05:44:43.058Z,6.67
2019-06-10T05:47:12.642Z,8.87
2019-06-10T05:49:43.110Z,9.10
2019-06-10T05:52:12.597Z,10.40
2019-06-10T05:54:42.962Z,6.20
2019-06-10T05:57:12.090Z,7.53
2019-06-10T05:59:40.485Z,6.40
2019-06-10T06:02:08.787Z,6.30
2019-06-10T06:04:37.086Z,4.77
2019-06-10T06:07:05.419Z,6.17
2019-06-10T06:09:35.246Z,6.33
2019-06-10T06:12:03.912Z,5.00
2019-06-10T06:14:34.365Z,5.87
2019-06-10T06:17:02.378Z,8.37
2019-06-10T06:19:33.127Z,7.33
2019-06-10T06:22:02.244Z,5.93
2019-06-10T06:24:33.932Z,4.63
2019-06-10T06:27:02.511Z,6.23
2019-06-10T06:29:31.483Z,6.80
2019-06-10T06:32:02.558Z,4.77
2019-06-10T06:34:32.685Z,7.03
2019-06-10T06:37:02.194Z,4.67
2019-06-10T06:39:33.466Z,4.47
2019-06-10T06:42:02.235Z,4.40
2019-06-10T06:44:32.458Z,4.33
2019-06-10T06:47:02.519Z,4.30
2019-06-10T06:49:32.447Z,4.50
2019-06-10T06:52:02.767Z,5.43
2019-06-10T06:54:30.480Z,4.13
2019-06-10T06:56:58.923Z,4.30
2019-06-10T06:59:27.211Z,5.93
2019-06-10T07:01:55.501Z,4.60
2019-06-10T07:04:23.797Z,4.27
2019-06-10T07:06:55.428Z,4.37
2019-06-10T07:09:22.329Z,4.40
2019-06-10T07:11:52.952Z,4.87
2019-06-10T07:14:23.808Z,4.37
2019-06-10T07:16:52.933Z,7.57
2019-06-10T07:22:24.582Z,4.83
2019-06-10T07:24:53.103Z,4.00
2019-06-10T07:27:22.620Z,3.60
2019-06-10T07:29:52.992Z,4.13
2019-06-10T07:32:22.705Z,7.53
2019-06-10T07:34:52.510Z,3.87
2019-06-10T07:37:22.999Z,5.30
2019-06-10T07:39:52.311Z,4.63
2019-06-10T07:42:22.741Z,8.57
2019-06-10T07:44:52.976Z,4.70
2019-06-10T07:47:22.944Z,4.80
2019-06-10T07:49:52.277Z,4.90
2019-06-10T07:52:23.283Z,4.97
2019-06-10T07:54:52.775Z,4.27
2019-06-10T07:57:22.459Z,4.20
2019-06-10T07:59:52.287Z,4.47
2019-06-10T08:02:22.878Z,5.23
2019-06-10T08:04:53.887Z,4.70
2019-06-10T08:07:22.415Z,6.43
2019-06-10T08:09:50.236Z,4.30
2019-06-10T08:12:18.526Z,5.73
2019-06-10T08:14:47.983Z,4.43
2019-06-10T08:17:16.319Z,4.80
2019-06-10T08:19:49.548Z,5.37
2019-06-10T08:22:27.585Z,5.43
2019-06-10T08:24:45.398Z,6.80
2019-06-10T08:27:13.764Z,5.50
2019-06-10T08:29:46.198Z,6.40
2019-06-10T08:32:13.080Z,7.30
2019-06-10T08:34:44.630Z,7.50
2019-06-10T08:37:13.638Z,7.40
2019-06-10T08:39:43.136Z,7.43
2019-06-10T08:42:12.422Z,4.50
2019-06-10T08:44:43.529Z,6.87
2019-06-10T08:47:12.404Z,4.80
2019-06-10T08:49:44.046Z,5.73
2019-06-10T08:52:12.812Z,5.40
2019-06-10T08:54:45.217Z,6.57
2019-06-10T08:57:12.729Z,7.90
2019-06-10T08:59:43.155Z,5.27
2019-06-10T09:02:12.389Z,5.57
2019-06-10T09:04:43.598Z,4.93
2019-06-10T09:07:12.516Z,5.20
2019-06-10T09:09:40.572Z,6.57
2019-06-10T09:12:23.394Z,5.60
2019-06-10T09:14:41.027Z,6.73
2019-06-10T09:17:11.885Z,6.27
2019-06-10T09:19:40.182Z,5.70
2019-06-10T09:22:09.564Z,5.73
2019-06-10T09:24:38.977Z,5.40
2019-06-10T09:27:07.808Z,8.73
2019-06-10T09:29:36.093Z,5.87
2019-06-10T09:32:04.511Z,5.53
2019-06-10T09:34:33.196Z,5.23
2019-06-10T09:37:03.509Z,5.10
2019-06-10T09:39:32.893Z,7.00
2019-06-10T09:42:05.941Z,4.97
2019-06-10T09:44:33.308Z,5.47
2019-06-10T09:47:03.390Z,7.53
2019-06-10T09:49:33.053Z,6.07
2019-06-10T09:52:03.464Z,6.90
2019-06-10T09:54:33.567Z,5.67
2019-06-10T09:57:02.448Z,5.60
2019-06-10T09:59:32.259Z,6.77
2019-06-10T10:02:03.706Z,5.53
2019-06-10T10:04:32.640Z,5.10
2019-06-10T10:07:02.988Z,6.40
2019-06-10T10:09:34.422Z,5.37
2019-06-10T10:12:03.038Z,5.50
2019-06-10T10:14:33.469Z,6.20
2019-06-10T10:17:04.817Z,4.67
2019-06-10T10:19:31.350Z,5.17
2019-06-10T10:21:59.697Z,4.90
2019-06-10T10:24:27.912Z,5.83
2019-06-10T10:26:58.682Z,5.07
2019-06-10T10:29:26.153Z,4.97
2019-06-10T10:31:54.453Z,7.10
2019-06-10T10:34:23.632Z,6.97
2019-06-10T10:36:57.011Z,7.30
2019-06-10T10:39:24.710Z,7.93
2019-06-10T10:41:56.596Z,5.77
2019-06-10T10:44:22.192Z,7.90
2019-06-10T10:46:53.777Z,8.30
2019-06-10T10:49:22.349Z,8.13
2019-06-10T10:51:51.132Z,9.07
2019-06-10T10:54:29.843Z,7.87
2019-06-10T10:56:52.395Z,17.33
2019-06-10T10:59:19.466Z,13.00
2019-06-10T11:01:47.764Z,9.60
2019-06-10T11:04:16.057Z,6.00
2019-06-10T11:06:45.861Z,4.43
2019-06-10T11:09:15.856Z,4.30
2019-06-10T11:11:45.813Z,4.67
2019-06-10T11:14:15.415Z,5.83
2019-06-10T11:16:45.161Z,7.20
2019-06-10T11:19:13.581Z,7.80
2019-06-10T11:21:42.676Z,5.83
2019-06-10T11:24:14.265Z,7.00
2019-06-10T11:26:43.208Z,7.20
2019-06-10T11:29:11.779Z,7.37
2019-06-10T11:31:42.354Z,6.23
2019-06-10T11:34:10.008Z,8.73
2019-06-10T11:36:38.292Z,7.83
2019-06-10T11:39:07.582Z,9.93
2019-06-10T11:41:36.741Z,7.70
2019-06-10T11:44:05.149Z,8.50
2019-06-10T11:46:33.436Z,8.83
2019-06-10T11:49:03.899Z,6.63
2019-06-10T11:51:31.672Z,7.63
2019-06-10T11:53:59.984Z,9.27
2019-06-10T11:56:28.278Z,7.50
2019-06-10T11:58:58.760Z,7.10
2019-06-10T12:01:26.573Z,7.13
2019-06-10T12:03:57.577Z,6.70
2019-06-10T12:06:24.942Z,8.20
2019-06-10T12:08:55.393Z,7.30
2019-06-10T12:11:23.285Z,6.67
2019-06-10T12:13:53.707Z,8.87
2019-06-10T12:17:14.698Z,9.93
2019-06-10T12:18:53.745Z,13.53
2019-06-10T12:21:23.594Z,14.97
2019-06-10T12:23:55.967Z,13.37
2019-06-10T12:26:23.398Z,15.87
2019-06-10T12:28:54.637Z,16.77
2019-06-10T12:31:23.187Z,19.23
2019-06-10T12:33:55.326Z,16.57
2019-06-10T12:36:23.559Z,16.97
2019-06-10T12:38:55.157Z,18.90
2019-06-10T12:41:23.190Z,22.07
2019-06-10T12:43:52.277Z,23.70
2019-06-10T12:46:23.247Z,31.37
2019-06-10T12:48:54.083Z,23.87
2019-06-10T12:51:22.731Z,27.80
2019-06-10T12:53:51.470Z,26.47
2019-06-10T12:56:22.534Z,20.80
2019-06-10T12:58:49.919Z,16.90
2019-06-10T13:01:18.319Z,33.67
2019-06-10T13:03:46.630Z,22.13
2019-06-10T13:06:15.913Z,16.53
2019-06-10T13:08:44.337Z,16.03
2019-06-10T13:11:13.397Z,16.33
2019-06-10T13:13:43.074Z,13.20
2019-06-10T13:16:14.187Z,11.00
2019-06-10T13:18:41.408Z,11.47
2019-06-10T13:21:13.826Z,10.10
2019-06-10T13:23:39.643Z,7.67
2019-06-10T13:26:12.451Z,7.00
2019-06-10T13:28:37.985Z,7.47
2019-06-10T13:31:08.396Z,7.20
2019-06-10T13:33:36.255Z,7.90
2019-06-10T13:36:06.706Z,6.10
2019-06-10T13:38:34.631Z,7.17
2019-06-10T13:41:04.108Z,10.20
2019-06-10T13:43:34.026Z,7.63
2019-06-10T13:46:03.359Z,7.67
2019-06-10T13:48:32.649Z,7.00
2019-06-10T13:51:04.740Z,10.17
2019-06-10T13:53:30.942Z,6.67
2019-06-10T13:56:19.004Z,10.93
2019-06-10T13:58:29.117Z,6.07
2019-06-10T14:00:57.435Z,9.50
2019-06-10T14:03:25.725Z,13.73
2019-06-10T14:05:58.572Z,9.57
2019-06-10T14:08:24.323Z,3.57
2019-06-10T14:10:54.101Z,4.47
2019-06-10T14:13:23.502Z,4.77
2019-06-10T14:15:53.400Z,4.43
2019-06-10T14:18:23.188Z,4.63
2019-06-10T14:20:53.134Z,4.30
2019-06-10T14:23:22.150Z,3.13
2019-06-10T14:25:52.442Z,5.10
2019-06-10T14:28:38.711Z,3.93
2019-06-10T14:30:53.374Z,5.00
2019-06-10T14:33:23.043Z,5.17
2019-06-10T14:35:53.097Z,4.03
2019-06-10T14:38:22.123Z,6.13
2019-06-10T14:40:52.271Z,4.40
2019-06-10T14:43:22.815Z,6.07
2019-06-10T14:45:53.139Z,5.53
2019-06-10T14:48:22.982Z,6.10
2019-06-10T14:50:50.046Z,4.07
2019-06-10T14:53:18.322Z,4.60
2019-06-10T14:55:46.711Z,5.03
2019-06-10T14:58:18.470Z,5.33
2019-06-10T15:00:45.697Z,6.63
2019-06-10T15:03:19.104Z,6.67
2019-06-10T15:05:43.989Z,5.20
2019-06-10T15:08:14.122Z,5.23
2019-06-10T15:10:42.973Z,6.07
2019-06-10T15:13:11.830Z,5.13
2019-06-10T15:15:42.283Z,7.83
2019-06-10T15:18:11.449Z,4.63
2019-06-10T15:20:42.653Z,6.00
2019-06-10T15:23:11.495Z,4.70
2019-06-10T15:25:50.088Z,4.17
2019-06-10T15:28:10.698Z,5.23
2019-06-10T15:30:39.927Z,3.60
2019-06-10T15:33:08.493Z,3.57
2019-06-10T15:35:36.793Z,3.67
2019-06-10T15:38:05.074Z,5.90
2019-06-10T15:40:33.366Z,5.10
2019-06-10T15:43:01.668Z,5.13
2019-06-10T15:45:32.374Z,5.93
2019-06-10T15:48:02.395Z,4.07
2019-06-10T15:50:32.259Z,3.23
2019-06-10T15:52:59.769Z,3.23
2019-06-10T15:55:55.449Z,6.10
2019-06-10T15:57:58.004Z,4.40
2019-06-10T16:00:29.289Z,3.67
2019-06-10T16:02:56.593Z,5.33
2019-06-10T16:05:25.366Z,6.03
2019-06-10T16:07:53.839Z,4.90
2019-06-10T16:10:27.095Z,7.17
2019-06-10T16:12:52.794Z,5.00
2019-06-10T16:15:24.353Z,7.10
2019-06-10T16:17:53.392Z,4.70
2019-06-10T16:20:21.391Z,4.77
2019-06-10T16:22:52.183Z,6.87
2019-06-10T16:25:20.067Z,4.43
2019-06-10T16:27:51.196Z,8.53
2019-06-10T16:30:18.425Z,6.27
2019-06-10T16:32:47.025Z,6.27
2019-06-10T16:35:16.695Z,6.83
2019-06-10T16:37:45.142Z,8.00
2019-06-10T16:40:13.637Z,7.00
2019-06-10T16:42:43.124Z,7.00
2019-06-10T16:45:12.962Z,8.73
2019-06-10T16:47:43.071Z,8.70
2019-06-10T16:50:12.217Z,8.07
2019-06-10T16:52:43.103Z,9.43
2019-06-10T16:55:12.711Z,8.67
2019-06-10T16:57:40.626Z,6.27
2019-06-10T17:00:11.977Z,7.27
2019-06-10T17:02:39.574Z,7.23
2019-06-10T17:05:08.188Z,8.03
2019-06-10T17:07:36.469Z,8.87
2019-06-10T17:10:05.150Z,7.90
2019-06-10T17:12:33.445Z,7.90
2019-06-10T17:15:03.472Z,8.93
2019-06-10T17:17:32.790Z,10.03
2019-06-10T17:20:03.814Z,11.27
2019-06-10T17:22:33.389Z,8.83
2019-06-10T17:25:01.120Z,7.83
2019-06-10T17:27:29.720Z,8.03
2019-06-10T17:29:58.115Z,10.90
2019-06-10T17:32:26.849Z,12.60
2019-06-10T17:34:56.378Z,12.43
2019-06-10T17:37:24.669Z,9.93
2019-06-10T17:39:53.051Z,9.03
2019-06-10T17:42:25.574Z,7.10
2019-06-10T17:44:52.909Z,8.47
2019-06-10T17:47:23.966Z,7.80
2019-06-10T17:49:51.334Z,7.93
2019-06-10T17:52:19.621Z,9.23
2019-06-10T17:54:47.922Z,8.87
2019-06-10T17:57:16.196Z,7.03
2019-06-10T17:59:44.488Z,7.70
2019-06-10T18:02:12.841Z,11.40
2019-06-10T18:04:42.082Z,7.27
2019-06-10T18:07:12.888Z,6.63
2019-06-10T18:09:40.670Z,5.53
2019-06-10T18:12:09.066Z,7.00
2019-06-10T18:14:37.474Z,4.23
2019-06-10T18:17:05.754Z,5.37
2019-06-10T18:19:37.038Z,5.23
2019-06-10T18:22:04.088Z,3.47
2019-06-10T18:24:33.011Z,4.30
2019-06-10T18:27:02.292Z,3.90
2019-06-10T18:29:33.652Z,3.87
2019-06-10T18:32:03.218Z,4.47
2019-06-10T18:34:32.457Z,4.97
2019-06-10T18:37:02.629Z,4.63
2019-06-10T18:39:31.469Z,5.10
2019-06-10T18:42:00.061Z,8.20
2019-06-10T18:44:29.647Z,4.00
2019-06-10T18:46:58.130Z,5.10
2019-06-10T18:49:28.085Z,4.87
2019-06-10T18:51:56.773Z,5.77
2019-06-10T18:54:25.318Z,4.90
2019-06-10T18:56:53.799Z,5.60
2019-06-10T18:59:22.338Z,7.93
2019-06-10T19:01:52.715Z,12.03
2019-06-10T19:04:22.410Z,5.70
2019-06-10T19:06:52.745Z,7.40
2019-06-10T19:09:21.230Z,6.87
2019-06-10T19:11:49.633Z,7.77
2019-06-10T19:14:17.913Z,7.60
2019-06-10T19:16:46.383Z,7.00
2019-06-10T19:19:14.909Z,6.90
2019-06-10T19:21:44.090Z,4.93
2019-06-10T19:24:13.004Z,8.30
2019-06-10T19:26:44.823Z,5.87
2019-06-10T19:29:14.851Z,8.67
2019-06-10T19:31:45.600Z,5.37
2019-06-10T19:34:13.226Z,7.50
2019-06-10T19:36:41.862Z,9.90
2019-06-10T19:39:12.965Z,6.37
2019-06-10T19:41:45.143Z,5.30
2019-06-10T19:44:12.874Z,6.87
2019-06-10T19:46:42.817Z,6.10
2019-06-10T19:49:13.117Z,7.37
2019-06-10T19:51:41.618Z,6.30
2019-06-10T19:54:12.742Z,7.50
2019-06-10T19:56:41.702Z,9.30
2019-06-10T19:59:12.553Z,13.53
2019-06-10T20:01:41.945Z,8.10
2019-06-10T20:04:10.679Z,8.07
2019-06-10T20:06:41.615Z,8.93
2019-06-10T20:09:10.065Z,9.33
2019-06-10T20:11:38.419Z,9.50
2019-06-10T20:14:06.723Z,9.73
2019-06-10T20:16:35.620Z,13.33
2019-06-10T20:19:04.321Z,11.73
2019-06-10T20:21:33.930Z,9.97
2019-06-10T20:24:02.925Z,8.70
2019-06-10T20:26:32.907Z,7.00
2019-06-10T20:29:03.595Z,11.37
2019-06-10T20:31:32.507Z,11.80
2019-06-10T20:34:02.640Z,9.10
2019-06-10T20:36:33.481Z,9.03
2019-06-10T20:39:01.429Z,9.33
2019-06-10T20:41:30.029Z,9.50
2019-06-10T20:43:58.437Z,9.00
2019-06-10T20:46:26.980Z,9.80
2019-06-10T20:48:55.559Z,9.20
2019-06-10T20:51:27.125Z,8.47
2019-06-10T20:53:53.794Z,8.20
2019-06-10T20:56:23.273Z,7.80
2019-06-10T20:58:52.501Z,8.23
2019-06-10T21:01:25.254Z,9.43
2019-06-10T21:03:53.571Z,9.77
2019-06-10T21:06:22.645Z,8.97
2019-06-10T21:08:51.873Z,11.70
2019-06-10T21:11:22.925Z,9.57
2019-06-10T21:13:52.095Z,15.37
2019-06-10T21:16:22.827Z,13.00
2019-06-10T21:18:55.140Z,10.37
2019-06-10T21:21:22.640Z,11.50
2019-06-10T21:23:53.587Z,10.73
2019-06-10T21:26:23.415Z,12.17
2019-06-10T21:28:54.742Z,12.93
2019-06-10T21:31:21.270Z,10.70
2019-06-10T21:33:51.797Z,12.83
2019-06-10T21:36:19.701Z,11.67
2019-06-10T21:38:49.377Z,14.67
2019-06-10T21:41:18.050Z,13.10
2019-06-10T21:43:50.201Z,11.27
2019-06-10T21:46:16.881Z,13.77
2019-06-10T21:48:46.136Z,10.00
2019-06-10T21:51:15.516Z,12.53
2019-06-10T21:53:44.644Z,11.00
2019-06-10T21:56:13.212Z,9.57
2019-06-10T21:58:42.397Z,10.83
2019-06-10T22:01:16.331Z,13.43
2019-06-10T22:03:44.474Z,9.47
2019-06-10T22:06:12.479Z,10.57
2019-06-10T22:08:42.449Z,10.30
2019-06-10T22:11:13.449Z,12.07
2019-06-10T22:13:41.066Z,11.27
2019-06-10T22:16:09.674Z,12.27
2019-06-10T22:18:37.966Z,14.47
2019-06-10T22:21:06.500Z,11.47
2019-06-10T22:23:35.008Z,11.87
2019-06-10T22:26:03.528Z,12.30
2019-06-10T22:28:32.837Z,10.17
2019-06-10T22:31:16.083Z,10.47
2019-06-10T22:33:31.309Z,12.00
2019-06-10T22:36:02.182Z,8.80
2019-06-10T22:38:29.544Z,11.57
2019-06-10T22:40:57.840Z,11.73
2019-06-10T22:43:26.398Z,12.37
2019-06-10T22:45:55.943Z,9.73
2019-06-10T22:48:24.861Z,12.33
2019-06-10T22:50:53.372Z,13.27
2019-06-10T22:53:23.229Z,10.27
2019-06-10T22:55:53.482Z,12.23
2019-06-10T22:58:23.777Z,11.60
2019-06-10T23:00:53.191Z,11.33
2019-06-10T23:03:22.305Z,11.77
2019-06-10T23:05:52.258Z,10.53
2019-06-10T23:08:22.930Z,9.53
2019-06-10T23:10:53.771Z,9.90
2019-06-10T23:13:23.163Z,13.17
2019-06-10T23:15:53.934Z,10.70
2019-06-10T23:18:22.483Z,11.87
2019-06-10T23:20:52.017Z,11.73
2019-06-10T23:23:23.370Z,10.77
2019-06-10T23:25:53.676Z,9.80
2019-06-10T23:28:22.194Z,12.27
2019-06-10T23:30:53.472Z,9.33
2019-06-10T23:33:22.908Z,9.80
2019-06-10T23:35:52.398Z,12.33
2019-06-10T23:38:23.361Z,10.57
2019-06-10T23:40:51.114Z,11.00
2019-06-10T23:43:19.427Z,11.33
2019-06-10T23:45:47.718Z,12.37
2019-06-10T23:48:16.037Z,9.40
2019-06-10T23:50:44.326Z,9.60
2019-06-10T23:53:13.171Z,13.27
2019-06-10T23:55:42.777Z,10.37
2019-06-10T23:58:12.865Z,11.07
